Etusivu
METAR-TAF:

METAR-TAF

Lentoasemat :

Ringkøbing-Skjern, Tanska

Leveyspiiri: 56-00N, Pituuspiiri: 008-21E, korkeus merenpinnasta: 5 m

Tämänhetkinen sää

Tämä raportti tehtiin 11 tuntia ja 8 minuuttia sitten, kello 18.50 UTC
Tuuli 3 kn idästä/koillisesta
Lämpötila 5°C
Kosteus 93%
Ilmanpaine 1017 hPa
Näkyvyys 10 km tai enemmän
Hajonneita pilviä 2500 ft:n korkeudessa
heikkoa sadetta

METAR: EKVJ 201850Z 06003KT 9999 -RA BKN025 05/04 Q1017

Aika: 06:58 (05:58 UTC)

Sääennuste

Tämä raportti tehtiin 17 tuntia ja 58 minuuttia sitten, kello 12.00 UTC
Ennuste voimassa 20. päivästä klo 12 UTC - 20. päivään klo 16 UTC
Tuuli 5 kn idästä
Näkyvyys 10 km tai enemmän
Hajanaisia pilviä 4000 ft:n korkeudessa

TAF: EKVJ 201200Z 2012/2016 10005KT 9999 SCT040

Säähavainnot ja -ennusteet yli 4000 lentoasemalta (METAR- ja TAF-raportit).

Käytössä olevat sääasemat on merkitty karttaan keltaisilla ja punaisilla pisteillä.

Aseta hiiri pisteen päälle nähdäksesi sääaseman nimen.

Klikkaa sitten nähdäksesi säähavainnot ja -ennusteet.

Kartan vaihtaminen: klikkaa mustalla rastilla varustettuja vihreitä pisteitä, niin voit zoomata sisään; viivalla varustettua vihreää pistettä, niin voit zoomata ulos tai vihreitä nuolia, niin pääset viereisille kartoille.


METAR-TAF: